createdAt,value
2022-12-11T00:00:42.051Z,52.17
2022-12-11T00:01:44.786Z,50.90
2022-12-11T00:02:48.247Z,50.13
2022-12-11T00:03:57.082Z,50.58
2022-12-11T00:05:01.819Z,50.45
2022-12-11T00:06:05.702Z,51.78
2022-12-11T00:07:09.121Z,52.10
2022-12-11T00:08:12.165Z,50.97
2022-12-11T00:09:22.082Z,51.05
2022-12-11T00:10:25.501Z,46.90
2022-12-11T00:11:28.451Z,48.67
2022-12-11T00:12:31.872Z,47.25
2022-12-11T00:13:34.370Z,50.08
2022-12-11T00:14:44.604Z,48.70
2022-12-11T00:15:47.107Z,49.63
2022-12-11T00:16:50.600Z,50.50
2022-12-11T00:17:53.131Z,49.33
2022-12-11T00:18:56.572Z,50.08
2022-12-11T00:20:06.084Z,49.58
2022-12-11T00:21:20.052Z,50.97
2022-12-11T00:22:23.442Z,51.30
2022-12-11T00:23:25.910Z,49.22
2022-12-11T00:24:36.072Z,49.63
2022-12-11T00:25:48.070Z,49.20
2022-12-11T00:26:51.487Z,48.58
2022-12-11T00:27:53.969Z,52.70
2022-12-11T00:28:58.341Z,48.60
2022-12-11T00:30:00.818Z,51.25
2022-12-11T00:31:12.083Z,50.10
2022-12-11T00:32:15.503Z,48.25
2022-12-11T00:33:18.091Z,47.65
2022-12-11T00:34:21.475Z,49.47
2022-12-11T00:35:23.984Z,48.08
2022-12-11T00:36:36.083Z,47.03
2022-12-11T00:37:38.669Z,47.45
2022-12-11T00:38:42.892Z,47.40
2022-12-11T00:39:45.622Z,47.83
2022-12-11T00:40:49.269Z,46.38
2022-12-11T00:41:58.071Z,47.13
2022-12-11T00:43:01.480Z,45.45
2022-12-11T00:44:11.080Z,46.40
2022-12-11T00:45:14.481Z,45.70
2022-12-11T00:46:17.052Z,48.92
2022-12-11T00:47:20.544Z,47.15
2022-12-11T00:48:23.220Z,47.22
2022-12-11T00:49:33.116Z,43.58
2022-12-11T00:50:35.995Z,44.60
2022-12-11T00:52:01.071Z,43.28
2022-12-11T00:53:03.789Z,42.72
2022-12-11T00:54:07.565Z,43.45
2022-12-11T00:55:18.126Z,43.45
2022-12-11T00:56:23.030Z,41.30
2022-12-11T00:57:25.484Z,41.60
2022-12-11T00:58:29.104Z,42.60
2022-12-11T00:59:32.558Z,43.90
2022-12-11T01:00:42.113Z,42.42
2022-12-11T01:01:45.550Z,43.63
2022-12-11T01:02:48.118Z,44.35
2022-12-11T01:03:58.062Z,46.13
2022-12-11T01:05:00.527Z,48.45
2022-12-11T01:06:03.923Z,47.70
2022-12-11T01:07:08.644Z,48.28
2022-12-11T01:08:18.261Z,47.40
2022-12-11T01:09:39.580Z,46.47
2022-12-11T01:10:43.011Z,45.20
2022-12-11T01:11:45.671Z,47.10
2022-12-11T01:12:49.101Z,47.00
2022-12-11T01:13:59.131Z,46.85
2022-12-11T01:15:01.693Z,45.40
2022-12-11T01:16:08.141Z,46.20
2022-12-11T01:17:10.650Z,47.15
2022-12-11T01:18:15.306Z,48.92
2022-12-11T01:19:25.034Z,48.50
2022-12-11T01:20:28.220Z,48.17
2022-12-11T01:21:31.967Z,47.17
2022-12-11T01:22:36.012Z,47.40
2022-12-11T01:23:39.843Z,48.15
2022-12-11T01:24:49.063Z,49.38
2022-12-11T01:25:52.503Z,52.10
2022-12-11T01:26:55.003Z,50.50
2022-12-11T01:27:58.390Z,52.00
2022-12-11T01:29:01.456Z,55.15
2022-12-11T01:30:13.065Z,54.10
2022-12-11T01:31:16.838Z,52.63
2022-12-11T01:32:27.061Z,54.95
2022-12-11T01:33:29.551Z,58.60
2022-12-11T01:34:33.825Z,57.72
2022-12-11T01:35:37.336Z,57.05
2022-12-11T01:36:40.123Z,58.35
2022-12-11T01:37:54.071Z,57.72
2022-12-11T01:38:57.131Z,55.47
2022-12-11T01:40:00.604Z,59.40
2022-12-11T01:41:10.101Z,57.78
2022-12-11T01:42:24.071Z,59.47
2022-12-11T01:43:26.550Z,58.90
2022-12-11T01:44:48.432Z,56.97
2022-12-11T01:45:51.908Z,57.97
2022-12-11T01:47:01.081Z,57.00
2022-12-11T01:48:07.400Z,57.17
2022-12-11T01:49:12.013Z,55.78
2022-12-11T01:50:14.678Z,53.45
2022-12-11T01:51:18.356Z,53.33
2022-12-11T01:52:34.083Z,50.20
2022-12-11T01:53:47.253Z,51.10
2022-12-11T01:54:50.094Z,50.25
2022-12-11T01:55:55.353Z,50.95
2022-12-11T01:57:07.091Z,47.55
2022-12-11T01:58:10.682Z,48.03
2022-12-11T01:59:21.080Z,47.03
2022-12-11T02:00:23.702Z,47.35
2022-12-11T02:01:29.896Z,49.08
2022-12-11T02:02:40.114Z,48.00
2022-12-11T02:03:43.681Z,45.90
2022-12-11T02:04:46.842Z,46.20
2022-12-11T02:05:50.702Z,45.22
2022-12-11T02:06:53.981Z,48.33
2022-12-11T02:08:05.257Z,45.78
2022-12-11T02:09:11.934Z,45.25
2022-12-11T02:10:14.633Z,44.90
2022-12-11T02:11:20.434Z,44.45
2022-12-11T02:12:26.942Z,43.10
2022-12-11T02:13:40.114Z,42.10
2022-12-11T02:14:51.127Z,39.10
2022-12-11T02:15:57.725Z,38.72
2022-12-11T02:17:02.161Z,40.20
2022-12-11T02:18:12.574Z,37.40
2022-12-11T02:19:19.681Z,37.20
2022-12-11T02:20:31.131Z,38.40
2022-12-11T02:21:36.101Z,35.75
2022-12-11T02:23:00.648Z,35.80
2022-12-11T02:24:17.228Z,34.80
2022-12-11T02:25:22.212Z,33.78
2022-12-11T02:26:43.101Z,34.15
2022-12-11T02:27:47.722Z,33.40
2022-12-11T02:29:00.091Z,33.70
2022-12-11T02:30:04.843Z,32.88
2022-12-11T02:31:13.336Z,33.85
2022-12-11T02:32:25.150Z,36.38
2022-12-11T02:33:32.904Z,33.63
2022-12-11T02:34:38.465Z,32.33
2022-12-11T02:35:43.083Z,31.98
2022-12-11T02:36:47.802Z,34.95
2022-12-11T02:38:00.090Z,35.67
2022-12-11T02:39:04.001Z,35.63
2022-12-11T02:40:16.098Z,37.42
2022-12-11T02:41:19.461Z,37.03
2022-12-11T02:42:23.472Z,36.97
2022-12-11T02:43:26.614Z,37.92
2022-12-11T02:44:39.111Z,37.15
2022-12-11T02:45:49.124Z,36.80
2022-12-11T02:46:53.204Z,36.63
2022-12-11T02:47:56.898Z,36.75
2022-12-11T02:49:00.383Z,35.13
2022-12-11T02:50:11.092Z,34.80
2022-12-11T02:51:16.273Z,35.28
2022-12-11T02:52:40.070Z,39.13
2022-12-11T02:53:43.770Z,36.67
2022-12-11T02:54:54.075Z,37.95
2022-12-11T02:56:01.290Z,38.22
2022-12-11T02:57:13.061Z,35.10
2022-12-11T02:58:17.652Z,33.90
2022-12-11T02:59:22.353Z,35.03
2022-12-11T03:00:27.101Z,35.00
2022-12-11T03:01:29.615Z,35.72
2022-12-11T03:02:40.151Z,32.85
2022-12-11T03:03:42.843Z,32.40
2022-12-11T03:04:46.579Z,33.78
2022-12-11T03:05:49.093Z,31.67
2022-12-11T03:06:54.500Z,31.50
2022-12-11T03:08:03.160Z,31.63
2022-12-11T03:09:07.400Z,32.10
2022-12-11T03:10:11.142Z,30.08
2022-12-11T03:11:21.301Z,30.40
2022-12-11T03:12:32.102Z,30.77
2022-12-11T03:13:35.521Z,28.80
2022-12-11T03:14:38.114Z,28.27
2022-12-11T03:15:54.062Z,30.98
2022-12-11T03:17:00.701Z,28.55
2022-12-11T03:18:14.083Z,29.33
2022-12-11T03:19:27.068Z,29.35
2022-12-11T03:20:35.001Z,27.17
2022-12-11T03:21:40.910Z,27.40
2022-12-11T03:22:47.590Z,26.42
2022-12-11T03:23:58.101Z,26.38
2022-12-11T03:25:03.712Z,24.10
2022-12-11T03:26:07.120Z,24.27
2022-12-11T03:27:22.088Z,24.35
2022-12-11T03:28:27.244Z,24.25
2022-12-11T03:29:33.376Z,24.85
2022-12-11T03:30:43.140Z,23.83
2022-12-11T03:31:56.081Z,24.30
2022-12-11T03:32:59.831Z,22.23
2022-12-11T03:34:12.172Z,24.48
2022-12-11T03:35:16.074Z,23.92
2022-12-11T03:36:21.891Z,26.35
2022-12-11T03:37:26.490Z,24.23
2022-12-11T03:38:33.193Z,23.95
2022-12-11T03:39:46.083Z,24.80
2022-12-11T03:40:57.061Z,24.27
2022-12-11T03:42:00.911Z,23.75
2022-12-11T03:43:05.069Z,22.50
2022-12-11T03:44:07.901Z,23.63
2022-12-11T03:45:12.123Z,24.25
2022-12-11T03:46:22.177Z,24.27
2022-12-11T03:47:35.080Z,23.35
2022-12-11T03:48:41.830Z,22.60
2022-12-11T03:49:46.303Z,24.70
2022-12-11T03:50:49.769Z,26.15
2022-12-11T03:51:54.301Z,26.70
2022-12-11T03:53:11.091Z,25.92
2022-12-11T03:54:21.580Z,26.52
2022-12-11T03:55:24.487Z,25.27
2022-12-11T03:56:28.671Z,26.75
2022-12-11T03:57:39.091Z,26.70
2022-12-11T03:58:42.543Z,26.38
2022-12-11T03:59:45.132Z,27.77
2022-12-11T04:00:48.531Z,26.10
2022-12-11T04:01:51.140Z,27.05
2022-12-11T04:03:20.110Z,26.50
2022-12-11T04:04:23.632Z,28.33
2022-12-11T04:05:26.141Z,27.65
2022-12-11T04:06:29.544Z,29.60
2022-12-11T04:07:32.010Z,33.88
2022-12-11T04:08:42.088Z,34.85
2022-12-11T04:09:44.580Z,33.20
2022-12-11T04:10:48.087Z,34.28
2022-12-11T04:11:50.591Z,35.00
2022-12-11T04:12:54.010Z,34.67
2022-12-11T04:14:18.086Z,36.65
2022-12-11T04:15:27.070Z,35.85
2022-12-11T04:16:30.493Z,36.25
2022-12-11T04:17:52.118Z,37.97
2022-12-11T04:19:13.761Z,36.22
2022-12-11T04:20:41.116Z,37.22
2022-12-11T04:22:02.212Z,39.10
2022-12-11T04:23:23.987Z,36.80
2022-12-11T04:24:27.382Z,36.55
2022-12-11T04:25:29.851Z,38.40
2022-12-11T04:26:40.097Z,37.15
2022-12-11T04:27:52.061Z,35.65
2022-12-11T04:28:55.485Z,36.55
2022-12-11T04:29:57.981Z,36.40
2022-12-11T04:31:08.130Z,34.10
2022-12-11T04:32:10.648Z,33.53
2022-12-11T04:33:14.050Z,34.80
2022-12-11T04:34:18.021Z,34.22
2022-12-11T04:35:21.521Z,34.90
2022-12-11T04:36:30.091Z,33.80
2022-12-11T04:37:33.511Z,32.78
2022-12-11T04:38:36.101Z,32.78
2022-12-11T04:39:39.493Z,34.10
2022-12-11T04:40:42.030Z,33.47
2022-12-11T04:41:52.103Z,33.42
2022-12-11T04:42:54.650Z,32.40
2022-12-11T04:43:58.060Z,34.63
2022-12-11T04:45:00.562Z,33.40
2022-12-11T04:46:04.927Z,34.45
2022-12-11T04:47:14.121Z,33.22
2022-12-11T04:48:17.501Z,32.92
2022-12-11T04:49:21.292Z,32.92
2022-12-11T04:50:24.726Z,33.75
2022-12-11T04:51:27.671Z,33.28
2022-12-11T04:52:44.092Z,33.22
2022-12-11T04:53:54.251Z,33.05
2022-12-11T04:54:56.780Z,32.60
2022-12-11T04:56:00.262Z,33.20
2022-12-11T04:57:09.142Z,32.47
2022-12-11T04:58:19.081Z,33.33
2022-12-11T04:59:21.582Z,31.95
2022-12-11T05:00:25.020Z,32.35
2022-12-11T05:01:27.533Z,33.85
2022-12-11T05:02:31.033Z,32.33
2022-12-11T05:03:41.104Z,33.25
2022-12-11T05:04:44.931Z,32.75
2022-12-11T05:05:50.689Z,31.77
2022-12-11T05:06:53.190Z,31.30
2022-12-11T05:08:03.174Z,31.30
2022-12-11T05:09:05.682Z,32.70
2022-12-11T05:10:16.091Z,29.67
2022-12-11T05:11:19.891Z,31.60
2022-12-11T05:12:23.271Z,30.27
2022-12-11T05:13:25.861Z,29.80
2022-12-11T05:14:38.155Z,30.25
2022-12-11T05:15:41.026Z,29.92
2022-12-11T05:16:44.451Z,31.08
2022-12-11T05:17:46.911Z,30.33
2022-12-11T05:18:50.329Z,30.45
2022-12-11T05:20:01.100Z,31.00
2022-12-11T05:21:05.400Z,28.85
2022-12-11T05:22:07.914Z,29.67
2022-12-11T05:23:11.420Z,29.52
2022-12-11T05:24:14.031Z,29.33
2022-12-11T05:25:24.106Z,29.77
2022-12-11T05:26:26.582Z,31.88
2022-12-11T05:27:30.232Z,28.85
2022-12-11T05:28:33.822Z,31.95
2022-12-11T05:29:44.111Z,29.67
2022-12-11T05:30:46.621Z,27.55
2022-12-11T05:31:50.052Z,29.38
2022-12-11T05:32:59.074Z,28.45
2022-12-11T05:34:03.448Z,25.08
2022-12-11T05:35:07.610Z,25.98
2022-12-11T05:36:11.581Z,25.20
2022-12-11T05:37:14.161Z,24.10
2022-12-11T05:38:24.152Z,21.70
2022-12-11T05:39:26.611Z,17.35
2022-12-11T05:40:30.026Z,17.13
2022-12-11T05:41:32.757Z,16.90
2022-12-11T05:42:36.395Z,15.93
2022-12-11T05:43:45.124Z,13.13
2022-12-11T05:44:48.641Z,13.15
2022-12-11T05:45:51.162Z,11.55
2022-12-11T05:46:54.984Z,10.10
2022-12-11T05:47:57.561Z,11.02
2022-12-11T05:49:08.063Z,10.38
2022-12-11T05:50:12.025Z,8.85
2022-12-11T05:51:16.152Z,9.35
2022-12-11T05:52:25.331Z,9.05
2022-12-11T05:53:42.104Z,9.45
2022-12-11T05:54:52.112Z,8.68
2022-12-11T05:56:01.164Z,7.93
2022-12-11T05:57:04.600Z,7.85
2022-12-11T05:58:07.075Z,8.80
2022-12-11T05:59:10.929Z,9.00
2022-12-11T06:00:14.054Z,8.05
2022-12-11T06:01:25.112Z,7.30
2022-12-11T06:02:28.630Z,7.13
2022-12-11T06:03:31.161Z,7.32
2022-12-11T06:04:35.145Z,7.78
2022-12-11T06:05:40.364Z,8.23
2022-12-11T06:06:51.150Z,7.57
2022-12-11T06:07:54.607Z,7.90
2022-12-11T06:08:58.155Z,7.45
2022-12-11T06:10:01.568Z,7.00
2022-12-11T06:11:04.601Z,7.32
2022-12-11T06:12:15.232Z,6.47
2022-12-11T06:13:18.419Z,7.07
2022-12-11T06:14:21.882Z,7.60
2022-12-11T06:15:24.439Z,7.47
2022-12-11T06:16:27.992Z,7.30
2022-12-11T06:17:37.149Z,7.80
2022-12-11T06:18:41.462Z,6.88
2022-12-11T06:19:51.283Z,6.72
2022-12-11T06:20:55.091Z,6.50
2022-12-11T06:21:58.496Z,6.70
2022-12-11T06:23:07.092Z,6.32
2022-12-11T06:24:19.140Z,6.78
2022-12-11T06:25:21.621Z,5.65
2022-12-11T06:26:25.360Z,5.40
2022-12-11T06:27:27.813Z,5.30
2022-12-11T06:28:31.292Z,5.60
2022-12-11T06:29:40.113Z,4.97
2022-12-11T06:30:43.522Z,4.72
2022-12-11T06:31:46.040Z,4.78
2022-12-11T06:32:49.527Z,4.30
2022-12-11T06:33:52.009Z,4.53
2022-12-11T06:35:02.154Z,4.90
2022-12-11T06:36:06.803Z,4.32
2022-12-11T06:37:10.227Z,4.88
2022-12-11T06:38:12.680Z,4.40
2022-12-11T06:39:16.100Z,4.50
2022-12-11T06:40:25.151Z,4.70
2022-12-11T06:41:28.591Z,4.80
2022-12-11T06:42:31.121Z,4.65
2022-12-11T06:43:34.610Z,4.15
2022-12-11T06:44:37.988Z,4.40
2022-12-11T06:45:47.168Z,4.63
2022-12-11T06:46:50.610Z,5.40
2022-12-11T06:47:53.093Z,5.07
2022-12-11T06:48:56.524Z,4.85
2022-12-11T06:49:59.092Z,5.03
2022-12-11T06:51:13.252Z,4.65
2022-12-11T06:52:18.707Z,4.70
2022-12-11T06:53:41.113Z,4.95
2022-12-11T06:54:44.542Z,4.82
2022-12-11T06:55:47.031Z,5.13
2022-12-11T06:56:57.100Z,5.55
2022-12-11T06:58:00.500Z,5.60
2022-12-11T06:59:07.342Z,5.50
2022-12-11T07:00:18.111Z,5.72
2022-12-11T07:01:29.161Z,5.25
2022-12-11T07:02:39.166Z,4.75
2022-12-11T07:03:41.690Z,4.72
2022-12-11T07:04:55.263Z,4.60
2022-12-11T07:06:01.480Z,4.18
2022-12-11T07:07:04.883Z,4.57
2022-12-11T07:08:15.155Z,5.30
2022-12-11T07:09:18.600Z,4.88
2022-12-11T07:10:21.301Z,4.32
2022-12-11T07:11:25.071Z,4.53
2022-12-11T07:12:27.560Z,3.83
2022-12-11T07:13:37.116Z,4.32
2022-12-11T07:14:39.683Z,4.28
2022-12-11T07:15:43.072Z,4.72
2022-12-11T07:16:45.655Z,4.72
2022-12-11T07:17:56.123Z,4.40
2022-12-11T07:18:58.592Z,4.57
2022-12-11T07:20:02.145Z,4.80
2022-12-11T07:21:04.922Z,4.78
2022-12-11T07:22:08.764Z,4.45
2022-12-11T07:23:19.142Z,5.20
2022-12-11T07:24:22.631Z,5.05
2022-12-11T07:25:25.119Z,5.68
2022-12-11T07:26:28.583Z,5.43
2022-12-11T07:27:31.102Z,4.75
2022-12-11T07:28:41.101Z,5.00
2022-12-11T07:29:50.124Z,4.47
2022-12-11T07:30:53.552Z,3.97
2022-12-11T07:32:02.264Z,4.68
2022-12-11T07:33:06.627Z,4.28
2022-12-11T07:34:09.297Z,4.93
2022-12-11T07:35:13.007Z,4.70
2022-12-11T07:36:16.360Z,4.18
2022-12-11T07:37:26.172Z,4.10
2022-12-11T07:38:30.936Z,4.13
2022-12-11T07:39:33.451Z,3.95
2022-12-11T07:40:36.900Z,4.57
2022-12-11T07:41:39.601Z,4.97
2022-12-11T07:42:49.101Z,5.50
2022-12-11T07:43:52.558Z,5.97
2022-12-11T07:44:55.055Z,5.32
2022-12-11T07:46:09.113Z,5.93
2022-12-11T07:47:11.596Z,8.07
2022-12-11T07:48:15.013Z,6.35
2022-12-11T07:49:18.511Z,7.82
2022-12-11T07:50:20.991Z,5.80
2022-12-11T07:51:34.115Z,6.13
2022-12-11T07:52:58.111Z,9.60
2022-12-11T07:54:17.168Z,7.00
2022-12-11T07:55:26.311Z,9.05
2022-12-11T07:56:30.343Z,6.18
2022-12-11T07:57:32.841Z,4.47
2022-12-11T07:58:36.997Z,4.20
2022-12-11T07:59:47.123Z,4.70
2022-12-11T08:00:49.731Z,4.63
2022-12-11T08:01:53.276Z,4.20
2022-12-11T08:02:56.731Z,3.72
2022-12-11T08:03:59.394Z,4.13
2022-12-11T08:05:09.482Z,4.20
2022-12-11T08:06:12.734Z,4.03
2022-12-11T08:07:23.115Z,4.35
2022-12-11T08:08:25.709Z,3.55
2022-12-11T08:09:30.471Z,3.90
2022-12-11T08:10:39.135Z,3.97
2022-12-11T08:11:49.207Z,5.35
2022-12-11T08:12:52.644Z,4.70
2022-12-11T08:13:55.218Z,4.18
2022-12-11T08:14:58.630Z,4.13
2022-12-11T08:16:03.940Z,3.78
2022-12-11T08:17:14.132Z,6.60
2022-12-11T08:18:16.613Z,6.50
2022-12-11T08:19:20.101Z,5.10
2022-12-11T08:20:22.576Z,4.93
2022-12-11T08:21:26.972Z,4.47
2022-12-11T08:22:36.160Z,5.05
2022-12-11T08:23:39.591Z,5.70
2022-12-11T08:24:44.489Z,5.88
2022-12-11T08:25:46.981Z,5.40
2022-12-11T08:26:57.142Z,5.13
2022-12-11T08:28:00.571Z,5.45
2022-12-11T08:29:04.101Z,4.65
2022-12-11T08:30:08.035Z,5.40
2022-12-11T08:31:11.823Z,5.35
2022-12-11T08:32:23.122Z,4.78
2022-12-11T08:33:25.981Z,3.97
2022-12-11T08:34:29.414Z,3.20
2022-12-11T08:35:31.952Z,3.50
2022-12-11T08:36:35.402Z,3.65
2022-12-11T08:37:44.172Z,4.25
2022-12-11T08:38:47.804Z,4.07
2022-12-11T08:39:51.701Z,3.95
2022-12-11T08:40:55.142Z,3.40
2022-12-11T08:41:57.622Z,8.13
2022-12-11T08:43:07.194Z,6.03
2022-12-11T08:44:16.596Z,4.38
2022-12-11T08:45:19.609Z,8.20
2022-12-11T08:46:30.426Z,6.57
2022-12-11T08:47:33.003Z,4.60
2022-12-11T08:48:43.115Z,4.55
2022-12-11T08:49:53.171Z,7.15
2022-12-11T08:50:56.604Z,6.95
2022-12-11T08:51:59.992Z,11.18
2022-12-11T08:53:09.351Z,5.88
2022-12-11T08:54:19.302Z,5.03
2022-12-11T08:55:30.136Z,6.88
2022-12-11T08:56:33.534Z,6.15
2022-12-11T08:57:36.069Z,9.15
2022-12-11T08:58:39.632Z,6.85
2022-12-11T08:59:49.111Z,14.40
2022-12-11T09:00:59.208Z,6.05
2022-12-11T09:02:02.628Z,6.95
2022-12-11T09:03:08.470Z,9.25
2022-12-11T09:04:16.247Z,5.95
2022-12-11T09:05:18.810Z,18.73
2022-12-11T09:06:29.158Z,12.35
2022-12-11T09:07:38.205Z,9.15
2022-12-11T09:08:44.835Z,8.90
2022-12-11T09:09:50.632Z,6.95
2022-12-11T09:10:54.470Z,7.80
2022-12-11T09:12:04.125Z,8.90
2022-12-11T09:13:07.680Z,9.15
2022-12-11T09:14:10.204Z,7.53
2022-12-11T09:15:14.001Z,6.65
2022-12-11T09:16:17.700Z,7.50
2022-12-11T09:17:28.151Z,7.18
2022-12-11T09:18:31.597Z,8.40
2022-12-11T09:19:35.001Z,11.85
2022-12-11T09:20:37.511Z,10.18
2022-12-11T09:21:40.952Z,8.00
2022-12-11T09:22:50.121Z,7.47
2022-12-11T09:23:54.880Z,7.43
2022-12-11T09:24:58.326Z,14.15
2022-12-11T09:26:04.272Z,11.45
2022-12-11T09:27:14.141Z,10.77
2022-12-11T09:28:16.669Z,11.35
2022-12-11T09:29:27.165Z,8.13
2022-12-11T09:30:30.716Z,10.73
2022-12-11T09:31:35.891Z,11.68
2022-12-11T09:32:39.919Z,11.27
2022-12-11T09:33:42.453Z,12.45
2022-12-11T09:34:52.801Z,11.43
2022-12-11T09:35:58.845Z,10.43
2022-12-11T09:37:02.362Z,8.48
2022-12-11T09:38:04.919Z,8.18
2022-12-11T09:39:09.320Z,12.73
2022-12-11T09:40:20.276Z,11.30
2022-12-11T09:41:37.141Z,11.40
2022-12-11T09:42:47.789Z,9.00
2022-12-11T09:43:53.184Z,9.00
2022-12-11T09:44:58.143Z,9.15
2022-12-11T09:46:02.126Z,9.05
2022-12-11T09:47:16.134Z,9.05
2022-12-11T09:48:22.452Z,8.77
2022-12-11T09:49:30.366Z,7.60
2022-12-11T09:50:34.726Z,7.78
2022-12-11T09:51:46.195Z,8.50
2022-12-11T09:52:55.620Z,8.02
2022-12-11T09:54:18.137Z,8.07
2022-12-11T09:55:24.206Z,8.30
2022-12-11T09:56:31.653Z,9.52
2022-12-11T09:57:48.163Z,8.07
2022-12-11T09:59:04.261Z,7.50
2022-12-11T10:00:13.293Z,7.70
2022-12-11T10:01:19.895Z,6.15
2022-12-11T10:02:26.920Z,7.38
2022-12-11T10:03:54.136Z,6.47
2022-12-11T10:05:00.882Z,6.43
2022-12-11T10:06:08.288Z,6.68
2022-12-11T10:07:21.141Z,6.95
2022-12-11T10:08:35.191Z,6.22
2022-12-11T10:09:40.921Z,5.15
2022-12-11T10:10:45.597Z,6.07
2022-12-11T10:11:57.450Z,6.45
2022-12-11T10:13:06.978Z,7.88
2022-12-11T10:14:22.182Z,6.20
2022-12-11T10:15:31.830Z,6.70
2022-12-11T10:16:37.365Z,6.70
2022-12-11T10:17:41.733Z,5.70
2022-12-11T10:18:45.263Z,6.20
2022-12-11T10:19:56.239Z,5.70
2022-12-11T10:21:02.715Z,6.30
2022-12-11T10:22:05.391Z,6.15
2022-12-11T10:23:09.762Z,5.90
2022-12-11T10:24:34.677Z,6.30
2022-12-11T10:25:48.110Z,6.28
2022-12-11T10:26:54.901Z,6.22
2022-12-11T10:27:58.676Z,6.60
2022-12-11T10:29:02.614Z,6.18
2022-12-11T10:30:21.124Z,5.72
2022-12-11T10:31:31.574Z,5.22
2022-12-11T10:32:37.432Z,6.05
2022-12-11T10:33:43.952Z,5.35
2022-12-11T10:34:48.693Z,5.30
2022-12-11T10:35:59.133Z,5.90
2022-12-11T10:37:03.205Z,5.00
2022-12-11T10:38:12.798Z,6.15
2022-12-11T10:39:17.302Z,5.32
2022-12-11T10:40:22.495Z,5.63
2022-12-11T10:41:37.211Z,5.20
2022-12-11T10:42:45.513Z,4.80
2022-12-11T10:43:50.071Z,4.60
2022-12-11T10:45:00.782Z,4.50
2022-12-11T10:46:03.964Z,4.38
2022-12-11T10:47:15.154Z,4.72
2022-12-11T10:48:19.053Z,5.72
2022-12-11T10:49:24.066Z,6.72
2022-12-11T10:50:28.013Z,5.00
2022-12-11T10:51:35.999Z,5.03
2022-12-11T10:52:47.207Z,5.43
2022-12-11T10:54:12.117Z,5.00
2022-12-11T10:55:20.774Z,5.18
2022-12-11T10:56:27.141Z,5.05
2022-12-11T10:57:31.500Z,5.20
2022-12-11T10:58:46.181Z,5.53
2022-12-11T10:59:51.120Z,5.55
2022-12-11T11:01:03.544Z,5.68
2022-12-11T11:02:07.908Z,5.00
2022-12-11T11:03:22.051Z,4.53
2022-12-11T11:04:35.103Z,4.05
2022-12-11T11:05:49.363Z,4.20
2022-12-11T11:07:02.966Z,4.47
2022-12-11T11:08:12.019Z,3.70
2022-12-11T11:09:36.135Z,4.30
2022-12-11T11:10:46.135Z,3.88
2022-12-11T11:11:51.730Z,3.92
2022-12-11T11:12:56.442Z,4.15
2022-12-11T11:14:15.168Z,4.60
2022-12-11T11:15:27.213Z,4.88
2022-12-11T11:16:30.173Z,4.63
2022-12-11T11:17:35.424Z,4.03
2022-12-11T11:18:41.479Z,3.83
2022-12-11T11:19:47.944Z,4.20
2022-12-11T11:20:57.173Z,3.72
2022-12-11T11:22:09.172Z,4.40
2022-12-11T11:23:14.320Z,3.70
2022-12-11T11:24:25.313Z,3.70
2022-12-11T11:25:29.748Z,4.00
2022-12-11T11:27:04.230Z,3.90
2022-12-11T11:28:05.255Z,3.30
2022-12-11T11:29:24.790Z,3.00
2022-12-11T11:30:29.194Z,3.35
2022-12-11T11:31:34.722Z,3.80
2022-12-11T11:32:45.152Z,3.80
2022-12-11T11:33:51.322Z,4.00
2022-12-11T11:34:55.756Z,3.42
2022-12-11T11:36:00.442Z,4.20
2022-12-11T11:37:12.166Z,4.32
2022-12-11T11:38:26.141Z,3.90
2022-12-11T11:39:33.103Z,4.72
2022-12-11T11:40:38.233Z,4.55
2022-12-11T11:41:45.308Z,4.53
2022-12-11T11:42:58.174Z,5.05
2022-12-11T11:44:02.723Z,4.07
2022-12-11T11:45:11.589Z,4.22
2022-12-11T11:46:19.706Z,4.22
2022-12-11T11:47:26.357Z,4.65
2022-12-11T11:48:40.181Z,4.65
2022-12-11T11:49:49.103Z,5.00
2022-12-11T11:50:54.134Z,3.95
2022-12-11T11:51:59.392Z,3.70
2022-12-11T11:53:05.874Z,3.70
2022-12-11T11:54:29.204Z,3.30
2022-12-11T11:55:37.543Z,2.92
2022-12-11T11:56:41.872Z,3.50
2022-12-11T11:57:46.374Z,3.45
2022-12-11T11:58:56.193Z,3.53
2022-12-11T12:00:16.150Z,4.10
2022-12-11T12:01:22.582Z,4.05
2022-12-11T12:02:26.056Z,4.00
2022-12-11T12:03:29.781Z,3.92
2022-12-11T12:04:41.168Z,4.47
2022-12-11T12:05:47.601Z,3.60
2022-12-11T12:07:09.522Z,3.47
2022-12-11T12:08:14.021Z,3.75
2022-12-11T12:09:32.254Z,5.03
2022-12-11T12:10:40.422Z,4.78
2022-12-11T12:11:47.503Z,4.40
2022-12-11T12:12:56.753Z,4.80
2022-12-11T12:14:28.781Z,4.03
2022-12-11T12:15:46.215Z,3.13
2022-12-11T12:16:55.991Z,3.58
2022-12-11T12:18:00.246Z,3.38
2022-12-11T12:19:04.904Z,4.45
2022-12-11T12:20:15.181Z,5.30
2022-12-11T12:21:27.175Z,4.22
2022-12-11T12:22:34.811Z,5.43
2022-12-11T12:23:46.683Z,4.97
2022-12-11T12:24:56.050Z,5.30
2022-12-11T12:26:07.150Z,3.90
2022-12-11T12:27:50.919Z,4.47
2022-12-11T12:28:51.985Z,4.80
2022-12-11T12:30:00.845Z,3.70
2022-12-11T12:31:11.855Z,3.80
2022-12-11T12:32:19.990Z,4.00
2022-12-11T12:33:40.269Z,4.57
2022-12-11T12:34:50.270Z,4.03
2022-12-11T12:36:00.876Z,3.50
2022-12-11T12:37:12.696Z,4.47
2022-12-11T12:38:25.352Z,6.60
2022-12-11T12:39:33.471Z,7.30
2022-12-11T12:40:39.955Z,8.40
2022-12-11T12:41:46.861Z,7.55
2022-12-11T12:42:53.006Z,7.22
2022-12-11T12:44:16.290Z,7.60
2022-12-11T12:45:25.959Z,5.57
2022-12-11T12:46:35.365Z,3.72
2022-12-11T12:47:40.818Z,3.33
2022-12-11T12:48:51.141Z,3.38
2022-12-11T12:50:01.163Z,3.17
2022-12-11T12:51:05.490Z,3.70
2022-12-11T12:52:12.507Z,3.65
2022-12-11T12:53:18.125Z,3.67
2022-12-11T12:54:36.163Z,5.60
2022-12-11T12:55:39.830Z,6.43
2022-12-11T12:56:43.872Z,6.60
2022-12-11T12:57:49.116Z,5.05
2022-12-11T12:58:52.580Z,4.68
2022-12-11T13:00:05.766Z,5.07
2022-12-11T13:01:19.223Z,5.35
2022-12-11T13:02:22.763Z,3.90
2022-12-11T13:03:30.673Z,3.80
2022-12-11T13:06:08.160Z,4.00
2022-12-11T13:07:20.433Z,4.18
2022-12-11T13:08:26.658Z,4.93
2022-12-11T13:09:30.221Z,9.10
2022-12-11T13:10:35.011Z,6.63
2022-12-11T13:11:44.212Z,6.15
2022-12-11T13:12:48.515Z,6.00
2022-12-11T13:14:04.020Z,7.75
2022-12-11T13:15:06.760Z,4.97
2022-12-11T13:16:25.493Z,3.95
2022-12-11T13:17:43.170Z,2.97
2022-12-11T13:18:49.530Z,2.92
2022-12-11T13:19:57.565Z,2.75
2022-12-11T13:21:01.039Z,3.30
2022-12-11T13:22:11.160Z,2.50
2022-12-11T13:23:19.453Z,4.85
2022-12-11T13:24:27.555Z,3.63
2022-12-11T13:25:31.924Z,3.20
2022-12-11T13:26:42.212Z,3.60
2022-12-11T13:27:45.652Z,3.67
2022-12-11T13:28:51.741Z,6.68
2022-12-11T13:30:06.330Z,7.45
2022-12-11T13:31:33.858Z,6.60
2022-12-11T13:32:44.162Z,8.77
2022-12-11T13:33:50.222Z,10.65
2022-12-11T13:34:54.414Z,16.30
2022-12-11T13:36:21.343Z,9.85
2022-12-11T13:37:36.175Z,9.55
2022-12-11T13:38:39.761Z,8.52
2022-12-11T13:39:55.215Z,8.13
2022-12-11T13:41:00.121Z,7.28
2022-12-11T13:42:05.081Z,7.78
2022-12-11T13:43:16.165Z,6.53
2022-12-11T13:44:22.771Z,4.53
2022-12-11T13:45:29.080Z,4.40
2022-12-11T13:46:41.163Z,4.25
2022-12-11T13:47:44.820Z,4.15
2022-12-11T13:48:49.381Z,3.72
2022-12-11T13:49:56.332Z,4.43
2022-12-11T13:51:06.180Z,4.30
2022-12-11T13:52:09.921Z,3.67
2022-12-11T13:53:15.680Z,4.57
2022-12-11T13:54:39.131Z,6.32
2022-12-11T13:55:49.202Z,6.53
2022-12-11T13:57:10.190Z,7.80
2022-12-11T13:58:20.575Z,4.20
2022-12-11T13:59:25.351Z,3.60
2022-12-11T14:00:30.246Z,4.25
2022-12-11T14:01:41.192Z,3.85
2022-12-11T14:02:44.628Z,3.85
2022-12-11T14:03:53.271Z,2.65
2022-12-11T14:04:58.962Z,2.97
2022-12-11T14:06:02.512Z,3.33
2022-12-11T14:07:15.164Z,3.20
2022-12-11T14:08:22.165Z,2.88
2022-12-11T14:09:26.404Z,3.55
2022-12-11T14:10:31.555Z,3.10
2022-12-11T14:11:35.572Z,3.08
2022-12-11T14:12:45.283Z,3.45
2022-12-11T14:13:48.082Z,3.30
2022-12-11T14:14:59.202Z,4.38
2022-12-11T14:16:03.195Z,5.93
2022-12-11T14:17:06.842Z,4.55
2022-12-11T14:18:10.240Z,3.38
2022-12-11T14:19:25.172Z,2.95
2022-12-11T14:20:36.153Z,3.05
2022-12-11T14:21:39.579Z,3.40
2022-12-11T14:22:43.025Z,3.40
2022-12-11T14:23:59.167Z,3.70
2022-12-11T14:25:14.650Z,3.40
2022-12-11T14:26:19.095Z,3.08
2022-12-11T14:27:23.163Z,3.60
2022-12-11T14:28:27.780Z,3.80
2022-12-11T14:29:59.150Z,4.03
2022-12-11T14:31:10.206Z,6.47
2022-12-11T14:32:18.764Z,8.50
2022-12-11T14:33:23.863Z,6.43
2022-12-11T14:34:31.605Z,4.30
2022-12-11T14:35:39.146Z,5.15
2022-12-11T14:36:50.179Z,3.95
2022-12-11T14:37:54.080Z,4.00
2022-12-11T14:38:59.248Z,4.35
2022-12-11T14:40:03.504Z,4.68
2022-12-11T14:41:15.194Z,4.80
2022-12-11T14:42:20.919Z,4.00
2022-12-11T14:43:24.651Z,4.75
2022-12-11T14:44:29.153Z,4.50